Time;durP1;ratioP1;P1;durP2;ratioP2;P2;SDS_P1;SDS_P2;PMS_P1;PMS_P2;Temp;Humidity;BMP_temperature;BMP_pressure;BME280_temperature;BME280_humidity;BME280_pressure;Samples;Min_cycle;Max_cycle;Signal;HPM_P1;HPM_P2
2022/06/02 00:00:25;;;;;;;12.80;7.27;;;9.80;99.90;;;;;;10344805;28;20395;-80
2022/06/02 00:06:29;;;;;;;10.77;7.13;;;9.70;99.90;;;;;;10344560;28;20207;-81
2022/06/02 00:12:04;;;;;;;15.40;9.03;;;9.70;99.90;;;;;;10358307;28;20289;-81
2022/06/02 00:17:44;;;;;;;12.50;7.50;;;9.60;99.90;;;;;;10330412;28;20240;-81
2022/06/02 00:23:33;;;;;;;12.33;7.00;;;9.50;99.90;;;;;;10357909;28;20195;-80
2022/06/02 00:29:13;;;;;;;11.37;6.87;;;9.50;99.90;;;;;;10358533;28;20204;-80
2022/06/02 00:34:37;;;;;;;12.50;7.77;;;9.50;99.90;;;;;;10343632;28;20600;-80
2022/06/02 00:40:00;;;;;;;12.00;7.70;;;9.40;99.90;;;;;;10313214;28;20357;-81
2022/06/02 00:45:22;;;;;;;14.67;8.23;;;9.40;99.90;;;;;;10316285;28;20283;-81
2022/06/02 00:50:52;;;;;;;12.17;7.67;;;9.30;99.90;;;;;;10316049;28;20208;-80
2022/06/02 01:02:13;;;;;;;10.80;7.33;;;9.20;99.90;;;;;;10301922;28;20279;-80
2022/06/02 01:08:06;;;;;;;10.70;6.83;;;9.20;99.90;;;;;;10314972;28;20203;-80
2022/06/02 01:13:33;;;;;;;10.00;6.57;;;9.20;99.90;;;;;;10285764;28;20283;-81
2022/06/02 01:19:29;;;;;;;10.73;6.17;;;9.30;99.90;;;;;;10299191;28;20211;-81
2022/06/02 01:25:08;;;;;;;7.87;5.50;;;9.40;99.90;;;;;;10256697;29;20220;-82
2022/06/02 01:30:48;;;;;;;7.73;5.03;;;9.40;99.90;;;;;;10272288;29;20216;-80
2022/06/02 01:36:23;;;;;;;4.90;4.03;;;9.40;99.90;;;;;;10241978;28;20558;-80
2022/06/02 01:42:04;;;;;;;3.93;3.50;;;9.40;99.90;;;;;;10255902;28;20265;-81
2022/06/02 01:47:48;;;;;;;4.50;3.63;;;9.30;99.90;;;;;;10269318;28;20263;-81
2022/06/02 01:53:31;;;;;;;4.37;3.57;;;9.30;99.90;;;;;;10255777;28;20283;-81
2022/06/02 01:59:29;;;;;;;5.67;4.00;;;9.30;99.90;;;;;;10299894;28;20223;-81
2022/06/02 02:04:50;;;;;;;5.27;3.97;;;9.40;99.90;;;;;;10316547;28;20205;-80
2022/06/02 02:10:20;;;;;;;4.60;3.67;;;9.40;99.90;;;;;;10316675;28;20277;-81
2022/06/02 02:15:56;;;;;;;5.30;3.50;;;9.30;99.90;;;;;;10295089;28;20236;-81
2022/06/02 02:21:29;;;;;;;5.03;4.00;;;9.40;99.90;;;;;;10347366;28;20236;-82
2022/06/02 02:27:04;;;;;;;5.53;3.77;;;9.40;99.90;;;;;;10334779;28;20207;-81
2022/06/02 02:32:57;;;;;;;6.23;4.00;;;9.40;99.90;;;;;;10361903;28;20379;-81
2022/06/02 02:38:35;;;;;;;4.53;4.03;;;9.60;99.90;;;;;;10360979;28;20250;-81
2022/06/02 02:44:34;;;;;;;4.43;3.60;;;9.60;99.90;;;;;;10347530;28;20514;-80
2022/06/02 02:50:01;;;;;;;6.63;3.80;;;9.70;99.90;;;;;;10347451;28;20200;-81
2022/06/02 02:55:33;;;;;;;4.43;3.37;;;9.80;99.90;;;;;;10347727;28;20223;-81
2022/06/02 03:01:19;;;;;;;8.43;4.17;;;9.90;99.90;;;;;;10361001;28;20195;-80
2022/06/02 03:06:42;;;;;;;8.27;4.73;;;10.00;99.90;;;;;;10346852;28;20203;-81
2022/06/02 03:12:24;;;;;;;6.33;4.27;;;10.00;99.90;;;;;;10361314;28;20195;-81
2022/06/02 03:18:10;;;;;;;5.53;3.73;;;10.00;99.90;;;;;;10332495;28;20234;-81
2022/06/02 03:23:53;;;;;;;5.90;4.07;;;9.90;99.90;;;;;;10346062;28;20222;-81
2022/06/02 03:29:42;;;;;;;6.73;4.07;;;9.90;99.90;;;;;;10344916;28;20516;-81
2022/06/02 03:35:12;;;;;;;6.23;3.70;;;9.90;99.90;;;;;;10345524;28;20302;-81
2022/06/02 03:40:42;;;;;;;4.80;3.67;;;9.80;99.90;;;;;;10319209;28;20231;-81
2022/06/02 03:46:20;;;;;;;5.27;3.60;;;9.80;99.90;;;;;;10319050;28;20221;-81
2022/06/02 03:51:57;;;;;;;6.30;4.87;;;9.90;99.90;;;;;;10304651;28;20205;-81
2022/06/02 03:57:45;;;;;;;4.63;3.90;;;9.90;99.90;;;;;;10304360;28;20227;-81
2022/06/02 04:03:07;;;;;;;7.17;4.27;;;10.00;99.90;;;;;;10304929;28;20290;-80
2022/06/02 04:08:50;;;;;;;5.33;4.40;;;10.20;99.90;;;;;;10304197;28;20369;-80
2022/06/02 04:14:41;;;;;;;5.13;4.60;;;10.30;99.90;;;;;;10303748;28;20518;-80
2022/06/02 04:20:34;;;;;;;5.23;4.33;;;10.40;99.90;;;;;;10325076;28;20207;-80
2022/06/02 04:26:33;;;;;;;5.67;4.60;;;10.50;99.90;;;;;;10311462;28;20204;-80
2022/06/02 04:32:16;;;;;;;8.43;6.00;;;10.50;99.90;;;;;;10341534;28;20242;-80
2022/06/02 04:37:48;;;;;;;11.87;7.73;;;10.50;99.90;;;;;;10323746;28;20246;-80
2022/06/02 04:43:31;;;;;;;5.80;5.07;;;10.60;99.90;;;;;;10353949;28;20274;-80
2022/06/02 04:49:02;;;;;;;5.77;4.80;;;10.70;99.90;;;;;;10354088;28;20213;-79
2022/06/02 04:54:48;;;;;;;8.03;4.97;;;10.90;99.90;;;;;;10338660;28;20312;-80
2022/06/02 05:00:41;;;;;;;7.37;4.90;;;11.10;99.90;;;;;;10315868;28;20223;-80
2022/06/02 05:06:39;;;;;;;7.43;5.07;;;11.20;99.90;;;;;;10301747;28;20204;-80
2022/06/02 05:12:25;;;;;;;4.30;3.90;;;11.30;99.90;;;;;;10314704;28;20217;-80
2022/06/02 05:18:09;;;;;;;5.70;3.63;;;11.50;99.90;;;;;;10326911;28;20235;-80
2022/06/02 05:23:42;;;;;;;10.47;4.27;;;11.50;99.90;;;;;;10341563;28;20216;-81
2022/06/02 05:29:24;;;;;;;4.07;3.53;;;11.70;99.90;;;;;;10341115;28;20236;-80
2022/06/02 05:35:08;;;;;;;4.23;3.63;;;11.90;99.90;;;;;;10354589;28;20224;-80
2022/06/02 05:40:38;;;;;;;3.50;3.20;;;11.90;99.90;;;;;;10328682;28;20268;-80
2022/06/02 05:46:41;;;;;;;3.90;2.50;;;12.00;99.90;;;;;;10300485;28;20236;-80
2022/06/02 05:52:23;;;;;;;4.30;2.77;;;12.20;99.90;;;;;;10313350;28;20217;-81
2022/06/02 05:58:10;;;;;;;3.13;2.87;;;12.30;99.90;;;;;;10299924;28;20244;-81
2022/06/02 06:03:39;;;;;;;4.00;2.53;;;12.40;92.10;;;;;;10229105;29;20219;-81
2022/06/02 06:09:03;;;;;;;3.83;2.40;;;12.60;67.90;;;;;;10215310;29;20214;-80
2022/06/02 06:15:21;;;;;;;4.40;2.23;;;12.80;61.20;;;;;;10231548;29;20391;-80
2022/06/02 06:21:07;;;;;;;2.58;2.20;;;13.00;39.90;;;;;;10191804;29;20216;-80
2022/06/02 06:26:31;;;;;;;4.80;2.10;;;13.10;36.90;;;;;;10192073;29;20259;-80
2022/06/02 06:31:52;;;;;;;2.57;1.67;;;13.20;31.80;;;;;;10191776;29;20214;-81
2022/06/02 06:37:35;;;;;;;1.73;1.63;;;13.50;34.80;;;;;;10181854;29;20298;-80
2022/06/02 06:43:45;;;;;;;5.53;1.80;;;14.20;54.00;;;;;;10201770;29;20795;-80
2022/06/02 06:49:16;;;;;;;1.30;1.20;;;14.80;77.10;;;;;;10129623;29;20216;-81
2022/06/02 06:55:07;;;;;;;1.63;1.35;;;15.50;74.40;;;;;;10152199;29;20531;-81
2022/06/02 07:00:36;;;;;;;2.88;1.10;;;16.20;56.10;;;;;;10149555;29;20220;-81
2022/06/02 07:06:06;;;;;;;2.63;1.17;;;16.10;49.70;;;;;;10140665;29;20214;-81
2022/06/02 07:18:03;;;;;;;1.92;1.20;;;17.00;44.20;;;;;;10234892;28;20555;-81
2022/06/02 07:23:51;;;;;;;1.30;1.00;;;17.00;42.70;;;;;;10360792;28;20193;-80
2022/06/02 07:29:19;;;;;;;0.70;0.70;;;17.60;77.60;;;;;;10344412;28;20214;-87
2022/06/02 07:35:16;;;;;;;1.20;1.10;;;18.00;93.40;;;;;;10396265;28;20233;-83
2022/06/02 07:41:15;;;;;;;2.15;0.80;;;18.40;93.20;;;;;;10379554;28;20495;-82
2022/06/02 07:47:05;;;;;;;1.27;0.80;;;18.30;86.20;;;;;;10394324;28;20240;-83
2022/06/02 07:52:40;;;;;;;2.75;0.95;;;18.70;86.40;;;;;;10375703;28;20259;-83
2022/06/02 07:58:20;;;;;;;1.00;0.80;;;19.20;85.50;;;;;;10372761;28;20316;-82
2022/06/02 08:04:08;;;;;;;3.10;0.90;;;19.10;82.80;;;;;;10380926;28;20217;-83
2022/06/02 08:09:58;;;;;;;1.65;1.05;;;18.40;76.80;;;;;;10346838;28;20216;-84
2022/06/02 08:15:37;;;;;;;4.32;1.45;;;19.60;25.20;;;;;;10392460;28;20307;-83
2022/06/02 08:21:26;;;;;;;1.10;1.00;;;20.30;25.90;;;;;;10378337;28;20223;-83
2022/06/02 08:27:06;;;;;;;1.35;1.00;;;20.30;24.60;;;;;;10364937;28;20211;-83
2022/06/02 08:32:52;;;;;;;1.90;1.10;;;20.80;19.00;;;;;;10368120;28;20221;-82
2022/06/02 08:38:49;;;;;;;1.58;1.13;;;19.20;13.00;;;;;;10362189;28;20270;-82
2022/06/02 08:44:49;;;;;;;1.95;1.13;;;19.40;15.90;;;;;;10366321;28;20213;-83
2022/06/02 08:50:16;;;;;;;2.08;1.10;;;20.20;1.00;;;;;;10323139;28;20221;-83
2022/06/02 08:56:03;;;;;;;1.77;1.08;;;20.10;1.00;;;;;;10292999;28;20237;-88
2022/06/02 09:02:01;;;;;;;3.78;1.23;;;19.60;1.00;;;;;;10310905;28;20220;-82
2022/06/02 09:08:00;;;;;;;2.70;1.40;;;18.90;1.00;;;;;;10296038;28;20286;-85
2022/06/02 09:13:42;;;;;;;1.67;1.27;;;18.60;1.00;;;;;;10329169;28;20217;-85
2022/06/02 09:19:34;;;;;;;4.50;1.65;;;17.70;1.00;;;;;;10332701;28;20250;-83
2022/06/02 09:25:07;;;;;;;2.53;1.20;;;17.20;1.00;;;;;;10325461;28;20255;-82
2022/06/02 09:30:56;;;;;;;1.85;1.48;;;16.80;1.00;;;;;;10358546;28;20210;-82
2022/06/02 09:36:55;;;;;;;1.75;1.40;;;16.60;1.00;;;;;;10368253;28;20534;-82
2022/06/02 09:42:39;;;;;;;3.33;2.28;;;16.70;28.00;;;;;;10350422;28;20207;-82
2022/06/02 09:48:41;;;;;;;1.52;1.38;;;16.70;32.10;;;;;;10365807;28;20252;-79
2022/06/02 09:54:37;;;;;;;4.07;2.17;;;15.90;16.60;;;;;;10312763;28;20227;-81
2022/06/02 10:00:35;;;;;;;2.70;1.90;;;14.90;1.00;;;;;;10216980;29;20220;-80
2022/06/02 10:06:23;;;;;;;3.88;2.17;;;14.20;50.80;;;;;;10195631;29;20218;-80
2022/06/02 10:11:55;;;;;;;3.90;2.58;;;14.00;90.00;;;;;;10208308;29;20218;-82
2022/06/02 10:17:43;;;;;;;5.20;2.03;;;14.80;99.90;;;;;;10208805;29;20253;-83
2022/06/02 10:23:35;;;;;;;6.57;3.67;;;15.60;58.10;;;;;;10192778;29;20226;-82
2022/06/02 10:29:43;;;;;;;1.00;0.90;;;16.10;5.80;;;;;;10218691;29;20245;-81
2022/06/02 10:35:23;;;;;;;8.63;5.72;;;15.70;1.00;;;;;;10291912;28;20559;-83
2022/06/02 10:41:09;;;;;;;1.15;1.05;;;15.30;1.00;;;;;;10363349;28;20375;-87
2022/06/02 10:46:55;;;;;;;1.27;0.90;;;15.30;1.00;;;;;;10347367;28;20214;-80
2022/06/02 10:52:54;;;;;;;1.13;1.00;;;16.00;1.00;;;;;;10388601;28;20228;-83
2022/06/02 10:58:46;;;;;;;3.60;2.28;;;16.20;1.00;;;;;;10363479;28;20234;-82
2022/06/02 11:05:02;;;;;;;3.03;1.48;;;15.50;1.00;;;;;;10378419;28;20209;-83
2022/06/02 11:10:33;;;;;;;0.98;0.90;;;15.00;1.00;;;;;;10385140;28;20195;-81
2022/06/02 11:16:08;;;;;;;2.83;1.63;;;14.50;1.00;;;;;;10372176;28;20228;-83
2022/06/02 11:21:47;;;;;;;2.03;1.27;;;13.90;1.00;;;;;;10366287;28;20210;-84
2022/06/02 11:27:14;;;;;;;2.65;1.55;;;13.70;13.00;;;;;;10389131;28;20208;-80
2022/06/02 11:33:13;;;;;;;5.13;3.30;;;13.60;62.20;;;;;;10387186;28;20384;-80
2022/06/02 11:39:02;;;;;;;4.30;2.00;;;13.60;45.10;;;;;;10370025;28;20234;-80
2022/06/02 11:44:37;;;;;;;2.50;1.70;;;13.70;32.30;;;;;;10347478;28;20202;-80
2022/06/02 11:50:25;;;;;;;3.45;1.92;;;13.90;46.20;;;;;;10353606;28;20220;-79
2022/06/02 11:55:55;;;;;;;2.97;2.00;;;14.20;14.20;;;;;;10372852;28;20283;-81
2022/06/02 12:01:39;;;;;;;3.65;1.75;;;14.40;1.00;;;;;;10377536;28;20208;-80
2022/06/02 12:07:16;;;;;;;4.68;1.77;;;14.60;1.00;;;;;;10375805;28;20204;-80
2022/06/02 12:12:43;;;;;;;1.50;1.35;;;15.30;1.00;;;;;;10379474;28;20247;-81
2022/06/02 12:18:20;;;;;;;2.03;1.63;;;16.20;1.00;;;;;;10368436;28;20262;-80
2022/06/02 12:23:53;;;;;;;3.40;1.83;;;16.80;1.00;;;;;;10362766;28;20292;-80
2022/06/02 12:29:18;;;;;;;5.15;1.63;;;17.50;10.70;;;;;;10370149;28;20213;-80
2022/06/02 12:34:51;;;;;;;2.70;1.30;;;18.00;43.60;;;;;;10350238;28;20248;-80
2022/06/02 12:40:13;;;;;;;2.75;1.23;;;18.20;1.00;;;;;;10377081;28;20514;-80
2022/06/02 12:45:49;;;;;;;4.88;1.30;;;18.00;1.00;;;;;;10376317;28;20504;-82
2022/06/02 12:51:29;;;;;;;1.45;1.00;;;18.20;1.00;;;;;;10384987;28;20563;-81
2022/06/02 12:57:18;;;;;;;1.60;1.00;;;18.70;1.00;;;;;;10377837;28;20257;-81
2022/06/02 13:03:28;;;;;;;2.80;1.40;;;19.00;1.00;;;;;;10377652;28;20197;-82
2022/06/02 13:08:49;;;;;;;2.78;1.10;;;18.90;1.00;;;;;;10391231;28;20216;-82
2022/06/02 13:14:38;;;;;;;1.15;0.90;;;18.80;1.00;;;;;;10370902;28;20508;-82
2022/06/02 13:20:32;;;;;;;3.58;0.90;;;18.80;1.00;;;;;;10362481;28;20209;-81
2022/06/02 13:25:56;;;;;;;2.78;1.08;;;18.80;1.00;;;;;;10375947;28;20203;-80
2022/06/02 13:31:52;;;;;;;4.50;1.25;;;19.10;1.00;;;;;;10360356;28;20406;-80
2022/06/02 13:37:32;;;;;;;1.92;0.90;;;19.10;1.00;;;;;;10376374;28;20228;-80
2022/06/02 13:43:01;;;;;;;1.60;0.82;;;19.00;1.00;;;;;;10394343;28;20205;-81
2022/06/02 13:48:44;;;;;;;2.47;0.98;;;18.50;1.00;;;;;;10375470;28;20212;-79
2022/06/02 14:00:42;;;;;;;0.95;0.82;;;17.90;1.00;;;;;;10375918;28;20224;-80
2022/06/02 14:06:14;;;;;;;5.70;2.47;;;18.00;99.90;;;;;;10375096;28;20193;-80
2022/06/02 14:12:12;;;;;;;3.70;1.98;;;17.80;99.90;;;;;;10374600;28;20197;-81
2022/06/02 14:18:07;;;;;;;4.93;2.60;;;17.80;99.90;;;;;;10394856;28;20233;-79
2022/06/02 14:23:47;;;;;;;6.18;2.20;;;17.90;99.90;;;;;;10382317;28;20255;-80
2022/06/02 14:29:27;;;;;;;1.48;1.30;;;17.90;99.90;;;;;;10375416;28;20208;-80
2022/06/02 14:35:16;;;;;;;2.58;1.20;;;17.90;99.90;;;;;;10397939;28;20232;-79
2022/06/02 14:41:01;;;;;;;2.03;1.27;;;17.90;99.90;;;;;;10387099;28;20204;-82
2022/06/02 14:46:52;;;;;;;1.88;0.80;;;18.00;68.60;;;;;;10396186;28;20201;-82
2022/06/02 14:52:26;;;;;;;2.67;0.75;;;18.30;1.00;;;;;;10376789;28;20583;-81
2022/06/02 14:57:55;;;;;;;1.98;0.70;;;18.40;1.00;;;;;;10392620;28;20235;-80
2022/06/02 15:03:31;;;;;;;2.30;1.23;;;18.40;1.00;;;;;;10392121;28;20237;-81
2022/06/02 15:09:15;;;;;;;2.15;0.80;;;18.40;45.40;;;;;;10393325;28;20205;-82
2022/06/02 15:14:55;;;;;;;1.27;0.90;;;18.30;1.00;;;;;;10198380;29;20205;-81
2022/06/02 15:20:23;;;;;;;1.75;1.02;;;18.30;99.90;;;;;;10158683;29;20205;-85
2022/06/02 15:26:10;;;;;;;4.38;1.13;;;18.20;99.90;;;;;;10187195;29;20439;-82
2022/06/02 15:31:33;;;;;;;0.82;0.80;;;18.20;1.00;;;;;;10192643;28;20550;-80
2022/06/02 15:37:12;;;;;;;1.00;0.80;;;18.00;1.00;;;;;;10211449;29;20549;-80
2022/06/02 15:42:48;;;;;;;2.10;1.17;;;17.80;1.00;;;;;;10220175;29;20214;-80
2022/06/02 15:48:13;;;;;;;0.98;0.80;;;17.80;1.00;;;;;;10237710;28;20208;-80
2022/06/02 15:53:43;;;;;;;3.75;1.20;;;17.60;41.50;;;;;;10398865;28;20200;-81
2022/06/02 15:59:19;;;;;;;1.67;0.90;;;17.40;96.00;;;;;;10371243;28;20259;-81
2022/06/02 16:05:17;;;;;;;1.13;0.68;;;17.50;1.00;;;;;;10398216;28;20503;-85
2022/06/02 16:11:36;;;;;;;2.17;0.93;;;17.50;1.00;;;;;;10371453;28;20197;-80
2022/06/02 16:17:18;;;;;;;1.48;0.90;;;17.50;99.90;;;;;;10300853;28;20273;-81
2022/06/02 16:22:42;;;;;;;1.40;1.10;;;17.50;99.90;;;;;;10298533;28;20205;-80
2022/06/02 16:28:31;;;;;;;11.07;1.60;;;17.40;1.00;;;;;;10340343;28;20543;-83
2022/06/02 16:34:26;;;;;;;1.30;1.05;;;17.40;1.00;;;;;;10338716;28;20399;-79
2022/06/02 16:40:10;;;;;;;4.97;1.27;;;17.20;99.90;;;;;;10310515;28;20237;-80
2022/06/02 16:45:43;;;;;;;1.48;0.82;;;17.00;99.90;;;;;;10314144;28;20600;-80
2022/06/02 16:51:22;;;;;;;2.08;1.00;;;16.90;1.00;;;;;;10320947;28;20247;-83
2022/06/02 16:57:10;;;;;;;1.98;0.80;;;17.00;1.00;;;;;;10352563;28;20247;-80
2022/06/02 17:02:57;;;;;;;1.58;1.17;;;16.80;1.00;;;;;;10395946;28;20204;-85
2022/06/02 17:08:56;;;;;;;2.17;1.17;;;16.40;99.90;;;;;;10395443;28;20286;-80
2022/06/02 17:15:02;;;;;;;2.38;1.25;;;16.20;99.90;;;;;;10381831;28;20205;-79
2022/06/02 17:20:35;;;;;;;2.30;1.27;;;16.20;99.90;;;;;;10356027;28;20241;-80
2022/06/02 17:26:03;;;;;;;3.75;1.70;;;16.00;1.00;;;;;;10357233;28;20276;-79
2022/06/02 17:31:42;;;;;;;2.20;1.30;;;15.90;1.00;;;;;;10339054;28;20240;-81
2022/06/02 17:37:35;;;;;;;3.60;1.85;;;15.70;62.10;;;;;;10380769;28;20286;-80
2022/06/02 17:43:17;;;;;;;3.13;1.15;;;15.60;99.90;;;;;;10395905;28;20199;-79
2022/06/02 17:48:59;;;;;;;3.95;2.25;;;15.50;99.90;;;;;;10356656;28;20200;-79
2022/06/02 17:54:41;;;;;;;2.42;1.70;;;15.40;99.90;;;;;;10376923;28;20215;-80
2022/06/02 18:00:19;;;;;;;1.77;1.25;;;15.30;1.00;;;;;;10380115;28;20226;-80
2022/06/02 18:05:48;;;;;;;2.47;1.52;;;15.20;1.00;;;;;;10380967;28;20431;-79
2022/06/02 18:11:42;;;;;;;3.00;1.35;;;15.00;1.00;;;;;;10340323;28;20204;-80
2022/06/02 18:17:40;;;;;;;1.42;1.00;;;14.80;1.00;;;;;;10342908;28;20224;-79
2022/06/02 18:23:33;;;;;;;2.28;1.38;;;14.80;1.00;;;;;;10342881;28;20384;-79
2022/06/02 18:29:36;;;;;;;2.42;1.58;;;14.80;1.00;;;;;;10393054;28;20191;-80
2022/06/02 18:35:17;;;;;;;3.58;2.47;;;14.90;1.00;;;;;;10387225;28;20238;-80
2022/06/02 18:40:54;;;;;;;1.73;1.40;;;14.80;1.00;;;;;;10394057;28;20207;-79
2022/06/02 18:46:18;;;;;;;2.47;1.42;;;14.60;15.90;;;;;;10393315;28;20191;-79
2022/06/02 18:52:04;;;;;;;2.92;1.40;;;14.40;56.40;;;;;;10350472;28;20208;-80
2022/06/02 18:58:03;;;;;;;1.75;1.35;;;14.20;84.50;;;;;;10379298;28;20228;-79
2022/06/02 19:04:02;;;;;;;4.82;1.38;;;14.10;90.40;;;;;;10386722;28;20248;-79
2022/06/02 19:15:52;;;;;;;1.58;1.30;;;13.90;99.20;;;;;;10391724;28;20210;-79
2022/06/02 19:21:32;;;;;;;4.97;1.55;;;13.80;98.30;;;;;;10373665;28;20442;-79
2022/06/02 19:27:15;;;;;;;3.72;1.98;;;13.90;96.60;;;;;;10391036;28;20213;-80
2022/06/02 19:32:40;;;;;;;4.35;1.42;;;13.80;92.90;;;;;;10382659;28;20272;-80
2022/06/02 19:38:08;;;;;;;3.20;1.75;;;13.70;30.20;;;;;;10355500;28;20286;-80
2022/06/02 19:43:41;;;;;;;2.13;1.70;;;13.60;57.40;;;;;;10378443;28;20205;-80
2022/06/02 19:49:26;;;;;;;3.95;2.05;;;13.60;89.60;;;;;;10361390;28;20200;-79
2022/06/02 19:55:01;;;;;;;2.30;1.65;;;13.50;99.90;;;;;;10385336;28;20284;-79
2022/06/02 20:00:30;;;;;;;2.60;1.60;;;13.50;99.90;;;;;;10398189;28;20228;-79
2022/06/02 20:06:06;;;;;;;2.20;1.95;;;13.40;99.90;;;;;;10373385;28;20198;-79
2022/06/02 20:11:37;;;;;;;3.58;1.83;;;13.40;99.90;;;;;;10345953;28;20489;-79
2022/06/02 20:17:24;;;;;;;2.25;1.60;;;13.30;99.90;;;;;;10372396;28;20305;-79
2022/06/02 20:22:56;;;;;;;6.35;1.90;;;13.20;99.90;;;;;;10386592;28;20220;-79
2022/06/02 20:28:20;;;;;;;4.18;2.78;;;13.10;99.90;;;;;;10397740;28;20196;-79
2022/06/02 20:33:48;;;;;;;2.88;2.20;;;13.00;99.90;;;;;;10372836;28;20232;-80
2022/06/02 20:39:14;;;;;;;4.10;2.50;;;12.90;99.90;;;;;;10389663;28;20543;-79
2022/06/02 20:44:41;;;;;;;3.50;2.33;;;12.90;99.90;;;;;;10360462;28;20201;-80
2022/06/02 20:50:16;;;;;;;3.45;2.15;;;12.80;99.90;;;;;;10381494;28;20273;-79
2022/06/02 20:55:49;;;;;;;3.20;2.58;;;12.80;99.90;;;;;;10391542;28;20246;-79
2022/06/02 21:01:41;;;;;;;6.73;2.57;;;12.70;99.90;;;;;;10373239;28;20193;-79
2022/06/02 21:07:13;;;;;;;3.03;1.90;;;12.60;99.90;;;;;;10371933;28;20279;-79
2022/06/02 21:12:44;;;;;;;3.88;2.47;;;12.50;99.90;;;;;;10355713;28;20197;-81
2022/06/02 21:18:44;;;;;;;2.75;2.17;;;12.40;99.90;;;;;;10355826;28;20357;-80
2022/06/02 21:24:18;;;;;;;3.78;2.72;;;12.40;99.90;;;;;;10315808;28;20214;-79
2022/06/02 21:29:48;;;;;;;6.25;4.13;;;12.40;99.90;;;;;;10347027;28;20200;-80
2022/06/02 21:35:17;;;;;;;6.40;4.07;;;12.40;99.90;;;;;;10317192;28;20423;-79
2022/06/02 21:40:39;;;;;;;8.88;4.68;;;12.40;99.90;;;;;;10352095;28;20320;-79
2022/06/02 21:46:18;;;;;;;9.35;5.35;;;12.40;99.90;;;;;;10311911;28;20201;-79
2022/06/02 21:52:04;;;;;;;5.97;3.85;;;12.40;99.90;;;;;;10296606;28;20216;-79
2022/06/02 21:57:25;;;;;;;4.13;2.57;;;12.40;99.90;;;;;;10356844;28;20259;-79
2022/06/02 22:02:52;;;;;;;3.47;2.65;;;12.30;99.90;;;;;;10381055;28;20266;-79
2022/06/02 22:08:20;;;;;;;3.77;2.40;;;12.30;99.90;;;;;;10394729;28;20204;-79
2022/06/02 22:13:54;;;;;;;8.85;4.05;;;12.20;99.90;;;;;;10353424;28;20201;-79
2022/06/02 22:19:34;;;;;;;7.80;4.37;;;12.10;99.90;;;;;;10377598;28;20523;-79
2022/06/02 22:24:58;;;;;;;6.80;4.30;;;12.00;99.90;;;;;;10394688;28;20197;-78
2022/06/02 22:30:45;;;;;;;6.57;4.70;;;11.90;99.90;;;;;;10383347;28;20251;-79
2022/06/02 22:36:31;;;;;;;8.43;5.50;;;11.70;99.90;;;;;;10374675;28;20565;-80
2022/06/02 22:42:39;;;;;;;12.43;8.30;;;11.70;99.90;;;;;;10373955;28;20217;-79
2022/06/02 22:48:08;;;;;;;10.30;6.80;;;11.60;99.90;;;;;;10387288;28;20192;-80
2022/06/02 22:53:46;;;;;;;10.40;6.80;;;11.60;99.90;;;;;;10387508;28;20262;-79
2022/06/02 22:59:08;;;;;;;15.13;7.60;;;11.50;99.90;;;;;;10400644;28;20222;-79
2022/06/02 23:04:54;;;;;;;15.73;7.17;;;11.50;99.90;;;;;;10386776;28;20250;-80
2022/06/02 23:10:55;;;;;;;23.07;8.17;;;11.40;99.90;;;;;;10386240;28;20203;-80
2022/06/02 23:16:38;;;;;;;11.10;4.90;;;11.30;99.90;;;;;;10376817;28;20208;-81
2022/06/02 23:22:32;;;;;;;20.77;7.20;;;11.30;99.90;;;;;;10387959;28;20260;-84
2022/06/02 23:28:10;;;;;;;16.83;7.33;;;11.30;99.90;;;;;;10376108;28;20204;-82
2022/06/02 23:33:46;;;;;;;11.77;5.63;;;11.30;99.90;;;;;;10398788;28;20553;-83
2022/06/02 23:39:23;;;;;;;18.43;7.50;;;11.20;99.90;;;;;;10395064;28;20233;-80
2022/06/02 23:45:22;;;;;;;17.33;7.90;;;11.20;99.90;;;;;;10384187;28;20209;-80
2022/06/02 23:50:59;;;;;;;17.47;8.33;;;11.20;99.90;;;;;;10344787;28;20200;-79
2022/06/02 23:56:33;;;;;;;12.43;6.50;;;11.10;99.90;;;;;;10397894;28;20228;-85
